createdAt,value
2023-06-04T00:00:33.713Z,13.53
2023-06-04T00:03:40.594Z,13.49
2023-06-04T00:06:46.449Z,13.40
2023-06-04T00:09:54.749Z,13.33
2023-06-04T00:13:00.537Z,13.30
2023-06-04T00:16:06.880Z,13.32
2023-06-04T00:19:13.614Z,13.32
2023-06-04T00:22:18.887Z,13.37
2023-06-04T00:25:25.153Z,13.44
2023-06-04T00:28:31.025Z,13.51
2023-06-04T00:31:36.758Z,13.54
2023-06-04T00:34:42.365Z,13.52
2023-06-04T00:37:50.014Z,13.50
2023-06-04T00:40:57.213Z,13.49
2023-06-04T00:44:08.183Z,13.33
2023-06-04T00:47:13.103Z,13.26
2023-06-04T00:50:18.418Z,13.33
2023-06-04T00:53:24.352Z,13.15
2023-06-04T00:56:29.393Z,13.12
2023-06-04T00:59:34.542Z,13.16
2023-06-04T01:02:40.977Z,13.06
2023-06-04T01:06:14.257Z,13.03
2023-06-04T01:09:20.292Z,13.18
2023-06-04T01:12:26.015Z,13.10
2023-06-04T01:15:31.218Z,12.99
2023-06-04T01:18:40.931Z,13.14
2023-06-04T01:21:47.749Z,13.07
2023-06-04T01:24:54.295Z,13.10
2023-06-04T01:28:04.954Z,13.19
2023-06-04T01:31:11.891Z,13.20
2023-06-04T01:34:17.251Z,13.29
2023-06-04T01:37:21.945Z,13.30
2023-06-04T01:40:27.812Z,13.35
2023-06-04T01:43:34.067Z,13.13
2023-06-04T01:46:39.811Z,13.07
2023-06-04T01:49:48.675Z,13.08
2023-06-04T01:52:57.770Z,13.07
2023-06-04T01:55:58.297Z,13.09
2023-06-04T01:58:51.434Z,13.09
2023-06-04T02:01:55.987Z,13.40
2023-06-04T02:05:02.637Z,13.59
2023-06-04T02:08:10.019Z,13.91
2023-06-04T02:11:16.662Z,14.17
2023-06-04T02:14:22.792Z,14.39
2023-06-04T02:17:28.263Z,14.45
2023-06-04T02:20:33.226Z,14.65
2023-06-04T02:23:39.350Z,14.81
2023-06-04T02:26:44.757Z,14.96
2023-06-04T02:29:50.031Z,15.25
2023-06-04T02:32:57.157Z,15.47
2023-06-04T02:36:03.538Z,15.85
2023-06-04T02:39:09.458Z,15.91
2023-06-04T02:42:15.871Z,16.36
2023-06-04T02:45:23.208Z,16.31
2023-06-04T02:48:28.497Z,16.57
2023-06-04T02:51:26.784Z,16.63
2023-06-04T02:54:32.268Z,16.89
2023-06-04T02:57:39.878Z,16.94
2023-06-04T03:00:46.550Z,16.98
2023-06-04T03:03:53.842Z,17.24
2023-06-04T03:07:02.875Z,17.46
2023-06-04T03:10:09.604Z,17.49
2023-06-04T03:13:16.550Z,17.27
2023-06-04T03:16:22.337Z,17.20
2023-06-04T03:19:27.583Z,17.19
2023-06-04T03:22:27.005Z,16.92
2023-06-04T03:25:32.384Z,16.78
2023-06-04T03:28:38.036Z,16.78
2023-06-04T03:31:46.050Z,16.90
2023-06-04T03:34:52.899Z,17.13
2023-06-04T03:37:58.605Z,17.31
2023-06-04T03:41:05.390Z,17.43
2023-06-04T03:44:12.314Z,17.52
2023-06-04T03:47:18.978Z,17.68
2023-06-04T03:50:25.429Z,17.81
2023-06-04T03:53:31.948Z,17.71
2023-06-04T03:56:37.480Z,17.69
2023-06-04T03:59:45.064Z,17.73
2023-06-04T04:02:51.378Z,17.75
2023-06-04T04:06:00.836Z,17.56
2023-06-04T04:09:07.525Z,17.37
2023-06-04T04:12:13.920Z,17.37
2023-06-04T04:15:21.735Z,17.32
2023-06-04T04:18:28.370Z,17.31
2023-06-04T04:21:33.731Z,17.34
2023-06-04T04:24:45.701Z,17.20
2023-06-04T04:27:52.432Z,17.13
2023-06-04T04:30:57.337Z,17.22
2023-06-04T04:34:06.000Z,17.29
2023-06-04T04:37:12.488Z,17.33
2023-06-04T04:40:19.839Z,17.45
2023-06-04T04:43:27.097Z,17.37
2023-06-04T04:46:34.239Z,17.41
2023-06-04T04:49:40.306Z,17.39
2023-06-04T04:52:45.288Z,17.42
2023-06-04T04:55:50.692Z,17.45
2023-06-04T04:58:57.114Z,17.55
2023-06-04T05:02:02.453Z,17.69
2023-06-04T05:05:07.159Z,17.81
2023-06-04T05:08:13.891Z,17.96
2023-06-04T05:11:20.342Z,17.94
2023-06-04T05:14:26.042Z,17.79
2023-06-04T05:17:33.883Z,17.83
2023-06-04T05:20:39.900Z,17.96
2023-06-04T05:23:46.077Z,18.06
2023-06-04T05:26:56.231Z,18.27
2023-06-04T05:30:01.801Z,18.06
2023-06-04T05:33:07.339Z,18.03
2023-06-04T05:36:14.347Z,17.98
2023-06-04T05:39:21.674Z,17.97
2023-06-04T05:42:32.722Z,17.95
2023-06-04T05:45:40.468Z,17.93
2023-06-04T05:48:47.072Z,17.84
2023-06-04T05:51:52.561Z,17.84
2023-06-04T05:54:58.667Z,17.94
2023-06-04T05:58:05.042Z,18.08
2023-06-04T06:01:10.964Z,18.27
2023-06-04T06:04:09.508Z,18.52
2023-06-04T06:07:10.533Z,18.71
2023-06-04T06:10:16.702Z,18.76
2023-06-04T06:13:23.577Z,18.83
2023-06-04T06:16:29.930Z,18.99
2023-06-04T06:19:34.604Z,19.10
2023-06-04T06:22:40.364Z,19.10
2023-06-04T06:25:48.447Z,19.21
2023-06-04T06:28:56.256Z,19.36
2023-06-04T06:32:03.419Z,18.98
2023-06-04T06:35:09.998Z,19.09
2023-06-04T06:38:18.743Z,19.15
2023-06-04T06:41:24.082Z,19.28
2023-06-04T06:44:29.583Z,19.42
2023-06-04T06:47:34.716Z,19.43
2023-06-04T06:50:42.992Z,19.61
2023-06-04T06:53:43.560Z,19.73
2023-06-04T06:56:48.577Z,19.86
2023-06-04T06:59:55.291Z,19.92
2023-06-04T07:03:01.485Z,20.25
2023-06-04T07:06:07.547Z,20.25
2023-06-04T07:09:14.445Z,20.33
2023-06-04T07:12:21.082Z,20.37
2023-06-04T07:15:26.741Z,20.47
2023-06-04T07:18:33.039Z,20.51
2023-06-04T07:21:38.899Z,20.57
2023-06-04T07:24:45.173Z,20.67
2023-06-04T07:27:49.987Z,20.40
2023-06-04T07:30:55.826Z,20.62
2023-06-04T07:34:02.246Z,20.73
2023-06-04T07:37:08.248Z,20.74
2023-06-04T07:40:14.511Z,20.64
2023-06-04T07:43:19.858Z,20.50
2023-06-04T07:46:29.813Z,20.67
2023-06-04T07:49:35.422Z,20.87
2023-06-04T07:52:41.011Z,21.10
2023-06-04T07:55:47.746Z,21.15
2023-06-04T07:58:55.573Z,21.23
2023-06-04T08:02:00.711Z,21.31
2023-06-04T08:05:06.653Z,21.10
2023-06-04T08:08:12.039Z,20.92
2023-06-04T08:11:17.655Z,21.05
2023-06-04T08:14:23.079Z,21.12
2023-06-04T08:17:29.099Z,21.12
2023-06-04T08:20:34.492Z,21.12
2023-06-04T08:23:39.885Z,21.29
2023-06-04T08:26:46.298Z,21.41
2023-06-04T08:29:52.586Z,21.45
2023-06-04T08:32:52.789Z,21.49
2023-06-04T08:35:58.640Z,21.45
2023-06-04T08:39:04.749Z,21.51
2023-06-04T08:42:15.039Z,21.64
2023-06-04T08:45:26.098Z,21.68
2023-06-04T08:48:31.675Z,21.72
2023-06-04T08:51:37.206Z,21.55
2023-06-04T08:54:42.846Z,21.52
2023-06-04T08:57:48.874Z,21.47
2023-06-04T09:00:55.081Z,21.38
2023-06-04T09:04:01.793Z,21.55
2023-06-04T09:07:08.180Z,21.75
2023-06-04T09:10:14.159Z,21.82
2023-06-04T09:13:23.456Z,21.85
2023-06-04T09:16:29.193Z,21.90
2023-06-04T09:19:35.799Z,21.97
2023-06-04T09:22:51.672Z,22.07
2023-06-04T09:25:59.820Z,21.95
2023-06-04T09:28:59.899Z,22.03
2023-06-04T09:31:46.152Z,21.99
2023-06-04T09:34:39.236Z,22.07
2023-06-04T09:37:32.023Z,22.03
2023-06-04T09:40:37.303Z,21.99
2023-06-04T09:43:44.107Z,22.10
2023-06-04T09:46:49.886Z,22.11
2023-06-04T09:50:02.652Z,22.12
2023-06-04T09:53:08.371Z,22.13
2023-06-04T09:56:18.830Z,22.03
2023-06-04T09:59:26.310Z,21.92
2023-06-04T10:02:35.621Z,22.04
2023-06-04T10:05:43.101Z,21.99
2023-06-04T10:08:47.705Z,22.29
2023-06-04T10:12:07.253Z,22.40
2023-06-04T10:15:16.889Z,22.52
2023-06-04T10:18:23.328Z,22.75
2023-06-04T10:21:30.689Z,22.85
2023-06-04T10:24:36.160Z,22.83
2023-06-04T10:27:43.548Z,22.62
2023-06-04T10:30:49.550Z,22.79
2023-06-04T10:33:56.224Z,22.76
2023-06-04T10:37:03.052Z,22.89
2023-06-04T10:40:14.042Z,22.97
2023-06-04T10:43:25.840Z,22.97
2023-06-04T10:46:32.443Z,23.11
2023-06-04T10:49:45.372Z,23.36
2023-06-04T10:52:51.520Z,23.46
2023-06-04T10:56:03.556Z,23.44
2023-06-04T10:59:09.121Z,23.48
2023-06-04T11:02:25.446Z,23.58
2023-06-04T11:05:30.800Z,23.58
2023-06-04T11:08:46.518Z,23.33
2023-06-04T11:11:52.339Z,23.46
2023-06-04T11:15:12.724Z,23.56
2023-06-04T11:18:19.304Z,23.64
2023-06-04T11:21:20.441Z,23.83
2023-06-04T11:24:16.138Z,23.81
2023-06-04T11:27:35.570Z,23.55
2023-06-04T11:30:30.533Z,23.49
2023-06-04T11:33:29.194Z,23.45
2023-06-04T11:36:21.598Z,23.42
2023-06-04T11:39:26.514Z,23.50
2023-06-04T11:42:32.202Z,23.57
2023-06-04T11:45:39.421Z,23.63
2023-06-04T11:48:45.879Z,23.76
2023-06-04T11:51:52.600Z,23.87
2023-06-04T11:54:59.157Z,23.86
2023-06-04T11:58:04.055Z,23.81
2023-06-04T12:01:11.905Z,23.87
2023-06-04T12:04:17.087Z,23.90
2023-06-04T12:07:22.689Z,24.01
2023-06-04T12:10:28.289Z,23.65
2023-06-04T12:13:33.836Z,23.82
2023-06-04T12:16:40.296Z,23.18
2023-06-04T12:19:46.041Z,23.21
2023-06-04T12:22:56.781Z,23.19
2023-06-04T12:26:09.618Z,23.18
2023-06-04T12:29:27.906Z,23.24
2023-06-04T12:32:34.224Z,23.34
2023-06-04T12:35:40.177Z,23.42
2023-06-04T12:38:47.181Z,23.34
2023-06-04T12:41:53.198Z,23.28
2023-06-04T12:44:58.347Z,23.32
2023-06-04T12:48:04.789Z,23.38
2023-06-04T12:51:10.323Z,23.31
2023-06-04T12:54:15.308Z,23.33
2023-06-04T12:57:19.985Z,23.44
2023-06-04T13:00:25.749Z,23.44
2023-06-04T13:03:32.475Z,23.53
2023-06-04T13:06:38.946Z,23.33
2023-06-04T13:09:45.393Z,23.50
2023-06-04T13:12:51.954Z,23.55
2023-06-04T13:15:58.302Z,23.75
2023-06-04T13:19:03.688Z,23.89
2023-06-04T13:22:09.354Z,23.82
2023-06-04T13:25:15.424Z,23.80
2023-06-04T13:28:23.375Z,23.91
2023-06-04T13:31:28.718Z,23.88
2023-06-04T13:34:34.685Z,23.89
2023-06-04T13:37:40.685Z,23.88
2023-06-04T13:40:46.887Z,23.96
2023-06-04T13:43:53.121Z,23.92
2023-06-04T13:46:59.581Z,23.76
2023-06-04T13:50:05.184Z,23.65
2023-06-04T13:53:10.753Z,23.79
2023-06-04T13:56:16.765Z,23.86
2023-06-04T13:59:22.369Z,23.84
2023-06-04T14:02:29.453Z,23.86
2023-06-04T14:05:35.552Z,23.76
2023-06-04T14:08:41.185Z,23.70
2023-06-04T14:11:49.333Z,23.75
2023-06-04T14:14:54.475Z,23.64
2023-06-04T14:18:01.680Z,23.66
2023-06-04T14:21:10.805Z,23.66
2023-06-04T14:24:15.976Z,23.60
2023-06-04T14:27:21.685Z,23.47
2023-06-04T14:30:27.759Z,23.66
2023-06-04T14:33:33.835Z,23.67
2023-06-04T14:36:39.520Z,23.60
2023-06-04T14:39:46.341Z,23.50
2023-06-04T14:42:51.661Z,23.66
2023-06-04T14:45:57.679Z,23.70
2023-06-04T14:49:03.681Z,23.47
2023-06-04T14:52:09.249Z,23.27
2023-06-04T14:55:15.220Z,23.30
2023-06-04T14:58:20.007Z,23.16
2023-06-04T15:01:25.604Z,23.20
2023-06-04T15:04:32.286Z,23.19
2023-06-04T15:07:38.850Z,23.15
2023-06-04T15:10:44.444Z,23.01
2023-06-04T15:13:49.466Z,22.99
2023-06-04T15:16:56.053Z,22.97
2023-06-04T15:20:01.592Z,22.99
2023-06-04T15:22:59.448Z,22.93
2023-06-04T15:26:04.756Z,22.85
2023-06-04T15:29:10.958Z,23.02
2023-06-04T15:32:17.691Z,22.94
2023-06-04T15:35:23.800Z,22.80
2023-06-04T15:38:31.976Z,22.76
2023-06-04T15:41:37.792Z,22.82
2023-06-04T15:44:44.446Z,22.91
2023-06-04T15:47:50.050Z,22.72
2023-06-04T15:50:57.966Z,22.95
2023-06-04T15:54:04.299Z,23.25
2023-06-04T15:57:10.826Z,23.26
2023-06-04T16:00:15.456Z,23.05
2023-06-04T16:03:21.599Z,23.09
2023-06-04T16:06:28.172Z,23.06
2023-06-04T16:09:34.646Z,22.87
2023-06-04T16:12:40.262Z,22.82
2023-06-04T16:15:45.820Z,22.96
2023-06-04T16:18:54.349Z,22.79
2023-06-04T16:22:00.316Z,22.77
2023-06-04T16:25:06.188Z,22.77
2023-06-04T16:28:12.408Z,22.41
2023-06-04T16:31:18.227Z,22.51
2023-06-04T16:34:25.332Z,22.33
2023-06-04T16:37:30.454Z,22.42
2023-06-04T16:40:35.826Z,22.43
2023-06-04T16:43:41.683Z,22.39
2023-06-04T16:46:47.021Z,22.38
2023-06-04T16:49:53.374Z,22.19
2023-06-04T16:52:59.622Z,22.08
2023-06-04T16:56:05.998Z,21.90
2023-06-04T16:59:12.972Z,21.81
2023-06-04T17:02:19.313Z,21.58
2023-06-04T17:05:26.872Z,21.51
2023-06-04T17:08:32.780Z,21.43
2023-06-04T17:11:39.819Z,21.23
2023-06-04T17:14:45.350Z,21.13
2023-06-04T17:17:51.484Z,21.00
2023-06-04T17:20:57.983Z,20.89
2023-06-04T17:24:07.702Z,20.79
2023-06-04T17:27:12.979Z,20.69
2023-06-04T17:30:18.636Z,20.43
2023-06-04T17:33:24.266Z,20.43
2023-06-04T17:36:29.499Z,20.36
2023-06-04T17:39:34.960Z,20.26
2023-06-04T17:42:41.485Z,20.13
2023-06-04T17:45:40.298Z,20.01
2023-06-04T17:48:32.723Z,19.77
2023-06-04T17:51:39.104Z,19.71
2023-06-04T17:54:44.632Z,19.59
2023-06-04T17:57:44.650Z,19.44
2023-06-04T18:00:49.767Z,19.36
2023-06-04T18:03:57.132Z,19.31
2023-06-04T18:07:02.735Z,19.08
2023-06-04T18:10:08.594Z,18.98
2023-06-04T18:13:13.836Z,18.96
2023-06-04T18:16:22.770Z,19.02
2023-06-04T18:19:28.741Z,18.98
2023-06-04T18:22:36.300Z,18.78
2023-06-04T18:25:43.005Z,18.82
2023-06-04T18:28:49.655Z,18.83
2023-06-04T18:31:56.101Z,18.70
2023-06-04T18:35:01.904Z,18.73
2023-06-04T18:38:07.863Z,18.64
2023-06-04T18:41:14.041Z,18.37
2023-06-04T18:44:19.771Z,18.25
2023-06-04T18:47:26.275Z,18.22
2023-06-04T18:50:31.358Z,18.22
2023-06-04T18:53:36.870Z,18.24
2023-06-04T18:56:41.913Z,18.20
2023-06-04T18:59:48.758Z,18.12
2023-06-04T19:02:55.369Z,18.11
2023-06-04T19:06:06.118Z,18.07
2023-06-04T19:09:12.598Z,18.03
2023-06-04T19:12:18.111Z,18.02
2023-06-04T19:15:25.442Z,17.98
2023-06-04T19:18:30.487Z,17.92
2023-06-04T19:21:35.733Z,17.70
2023-06-04T19:24:41.540Z,17.77
2023-06-04T19:27:50.130Z,17.79
2023-06-04T19:30:55.987Z,17.69
2023-06-04T19:34:01.806Z,17.61
2023-06-04T19:37:09.500Z,17.53
2023-06-04T19:40:15.870Z,17.54
2023-06-04T19:43:22.138Z,16.96
2023-06-04T19:46:27.312Z,17.65
2023-06-04T19:49:26.845Z,17.53
2023-06-04T19:52:34.154Z,17.46
2023-06-04T19:55:34.021Z,17.37
2023-06-04T19:58:40.012Z,17.36
2023-06-04T20:01:45.321Z,17.32
2023-06-04T20:04:50.283Z,17.21
2023-06-04T20:07:56.968Z,17.12
2023-06-04T20:11:02.603Z,17.04
2023-06-04T20:14:08.302Z,17.00
2023-06-04T20:17:13.734Z,16.96
2023-06-04T20:20:21.415Z,16.86
2023-06-04T20:23:27.373Z,16.83
2023-06-04T20:26:40.753Z,16.72
2023-06-04T20:29:45.740Z,16.68
2023-06-04T20:32:52.111Z,16.53
2023-06-04T20:35:58.318Z,16.58
2023-06-04T20:39:04.285Z,16.55
2023-06-04T20:42:10.362Z,16.25
2023-06-04T20:45:16.924Z,16.33
2023-06-04T20:48:23.564Z,16.13
2023-06-04T20:51:29.182Z,16.25
2023-06-04T20:54:35.517Z,16.16
2023-06-04T20:57:41.207Z,16.22
2023-06-04T21:00:46.611Z,16.26
2023-06-04T21:03:52.189Z,16.34
2023-06-04T21:06:57.976Z,16.19
2023-06-04T21:10:03.091Z,16.21
2023-06-04T21:13:08.539Z,16.12
2023-06-04T21:16:13.872Z,16.21
2023-06-04T21:19:18.948Z,15.97
2023-06-04T21:22:24.832Z,15.76
2023-06-04T21:25:30.748Z,15.68
2023-06-04T21:28:36.029Z,15.63
2023-06-04T21:31:41.897Z,15.74
2023-06-04T21:34:47.578Z,15.77
2023-06-04T21:37:53.408Z,15.73
2023-06-04T21:40:58.123Z,15.60
2023-06-04T21:44:03.958Z,15.54
2023-06-04T21:47:09.910Z,15.53
2023-06-04T21:50:16.210Z,15.64
2023-06-04T21:53:21.972Z,15.66
2023-06-04T21:56:27.646Z,15.72
2023-06-04T21:59:33.349Z,15.65
2023-06-04T22:02:39.347Z,15.65
2023-06-04T22:05:44.725Z,15.60
2023-06-04T22:08:51.188Z,15.54
2023-06-04T22:11:57.085Z,15.52
2023-06-04T22:15:03.234Z,15.50
2023-06-04T22:18:08.993Z,15.28
2023-06-04T22:21:14.791Z,15.19
2023-06-04T22:24:20.520Z,15.21
2023-06-04T22:27:26.215Z,15.15
2023-06-04T22:30:32.327Z,15.19
2023-06-04T22:33:39.380Z,15.10
2023-06-04T22:36:44.712Z,15.06
2023-06-04T22:39:51.239Z,15.09
2023-06-04T22:42:57.877Z,15.06
2023-06-04T22:46:05.919Z,15.08
2023-06-04T22:49:11.832Z,15.03
2023-06-04T22:52:18.715Z,15.22
2023-06-04T22:55:25.802Z,15.37
2023-06-04T22:58:31.050Z,15.19
2023-06-04T23:01:37.685Z,15.19
2023-06-04T23:04:44.695Z,15.39
2023-06-04T23:07:50.057Z,15.38
2023-06-04T23:10:55.835Z,15.26
2023-06-04T23:14:01.542Z,15.34
2023-06-04T23:17:08.281Z,15.09
2023-06-04T23:20:13.889Z,14.97
2023-06-04T23:23:19.544Z,14.85
2023-06-04T23:26:25.371Z,14.82
2023-06-04T23:29:30.853Z,14.89
2023-06-04T23:32:36.716Z,14.86
2023-06-04T23:35:43.180Z,15.09
2023-06-04T23:38:50.070Z,15.01
2023-06-04T23:41:57.621Z,15.09
2023-06-04T23:45:03.334Z,15.14
2023-06-04T23:48:09.913Z,15.18
2023-06-04T23:51:09.594Z,15.08
2023-06-04T23:54:14.841Z,14.96
2023-06-04T23:57:19.518Z,14.98
